sensor_id;sensor_type;location;lat;lon;timestamp;pressure;altitude;pressure_sealevel;temperature;humidity
55301;BME280;58302;51.446;-2.000;2022-08-23T00:01:47;100363.88;;;17.34;100.00
55301;BME280;58302;51.446;-2.000;2022-08-23T00:04:21;100353.81;;;17.30;100.00
55301;BME280;58302;51.446;-2.000;2022-08-23T00:06:49;100367.81;;;17.20;100.00
55301;BME280;58302;51.446;-2.000;2022-08-23T00:09:17;100364.81;;;17.07;100.00
55301;BME280;58302;51.446;-2.000;2022-08-23T00:11:45;100363.63;;;17.00;100.00
55301;BME280;58302;51.446;-2.000;2022-08-23T00:14:19;100369.84;;;16.92;100.00
55301;BME280;58302;51.446;-2.000;2022-08-23T00:16:46;100374.03;;;16.89;100.00
55301;BME280;58302;51.446;-2.000;2022-08-23T00:19:13;100374.84;;;16.90;100.00
55301;BME280;58302;51.446;-2.000;2022-08-23T00:21:42;100372.09;;;16.90;100.00
55301;BME280;58302;51.446;-2.000;2022-08-23T00:24:09;100380.81;;;16.92;100.00
55301;BME280;58302;51.446;-2.000;2022-08-23T00:29:30;100385.91;;;16.98;100.00
55301;BME280;58302;51.446;-2.000;2022-08-23T00:31:57;100373.78;;;16.99;100.00
55301;BME280;58302;51.446;-2.000;2022-08-23T00:34:23;100365.72;;;17.03;100.00
55301;BME280;58302;51.446;-2.000;2022-08-23T00:36:50;100359.94;;;17.04;100.00
55301;BME280;58302;51.446;-2.000;2022-08-23T00:39:17;100352.19;;;17.06;100.00
55301;BME280;58302;51.446;-2.000;2022-08-23T00:41:44;100370.28;;;17.07;100.00
55301;BME280;58302;51.446;-2.000;2022-08-23T00:44:19;100374.66;;;17.08;100.00
55301;BME280;58302;51.446;-2.000;2022-08-23T00:47:05;100363.06;;;17.11;100.00
55301;BME280;58302;51.446;-2.000;2022-08-23T00:52:37;100362.75;;;17.13;100.00
55301;BME280;58302;51.446;-2.000;2022-08-23T00:55:06;100364.69;;;17.12;100.00
55301;BME280;58302;51.446;-2.000;2022-08-23T00:57:33;100368.56;;;17.11;100.00
55301;BME280;58302;51.446;-2.000;2022-08-23T00:59:59;100367.25;;;17.09;100.00
55301;BME280;58302;51.446;-2.000;2022-08-23T01:02:25;100371.09;;;17.08;100.00
55301;BME280;58302;51.446;-2.000;2022-08-23T01:04:55;100379.06;;;17.09;100.00
55301;BME280;58302;51.446;-2.000;2022-08-23T01:10:10;100370.94;;;17.04;100.00
55301;BME280;58302;51.446;-2.000;2022-08-23T01:12:43;100373.69;;;17.04;100.00
55301;BME280;58302;51.446;-2.000;2022-08-23T01:15:36;100377.56;;;17.03;100.00
55301;BME280;58302;51.446;-2.000;2022-08-23T01:18:08;100382.19;;;17.03;100.00
55301;BME280;58302;51.446;-2.000;2022-08-23T01:20:55;100371.84;;;17.00;100.00
55301;BME280;58302;51.446;-2.000;2022-08-23T01:23:34;100374.59;;;17.00;100.00
55301;BME280;58302;51.446;-2.000;2022-08-23T01:26:04;100383.97;;;16.99;100.00
55301;BME280;58302;51.446;-2.000;2022-08-23T01:28:30;100385.09;;;16.98;100.00
55301;BME280;58302;51.446;-2.000;2022-08-23T01:30:58;100378.47;;;16.99;100.00
55301;BME280;58302;51.446;-2.000;2022-08-23T01:33:24;100377.66;;;16.98;100.00
55301;BME280;58302;51.446;-2.000;2022-08-23T01:35:54;100385.59;;;17.00;100.00
55301;BME280;58302;51.446;-2.000;2022-08-23T01:38:21;100377.66;;;16.98;100.00
55301;BME280;58302;51.446;-2.000;2022-08-23T01:40:47;100376.53;;;16.99;100.00
55301;BME280;58302;51.446;-2.000;2022-08-23T01:43:14;100377.34;;;17.00;100.00
55301;BME280;58302;51.446;-2.000;2022-08-23T01:45:42;100380.91;;;17.00;100.00
55301;BME280;58302;51.446;-2.000;2022-08-23T01:48:08;100385.59;;;17.00;100.00
55301;BME280;58302;51.446;-2.000;2022-08-23T01:50:35;100384.25;;;16.97;100.00
55301;BME280;58302;51.446;-2.000;2022-08-23T01:53:01;100382.97;;;16.95;100.00
55301;BME280;58302;51.446;-2.000;2022-08-23T01:55:27;100377.47;;;16.95;100.00
55301;BME280;58302;51.446;-2.000;2022-08-23T01:57:55;100379.88;;;16.96;100.00
55301;BME280;58302;51.446;-2.000;2022-08-23T02:00:26;100368.91;;;16.96;100.00
55301;BME280;58302;51.446;-2.000;2022-08-23T02:02:56;100375.03;;;16.93;100.00
55301;BME280;58302;51.446;-2.000;2022-08-23T02:05:22;100378.91;;;16.92;100.00
55301;BME280;58302;51.446;-2.000;2022-08-23T02:07:48;100374.22;;;16.93;100.00
55301;BME280;58302;51.446;-2.000;2022-08-23T02:10:15;100382.75;;;16.91;100.00
55301;BME280;58302;51.446;-2.000;2022-08-23T02:12:41;100382.25;;;16.89;100.00
55301;BME280;58302;51.446;-2.000;2022-08-23T02:15:07;100375.16;;;16.88;100.00
55301;BME280;58302;51.446;-2.000;2022-08-23T02:17:33;100381.75;;;16.87;100.00
55301;BME280;58302;51.446;-2.000;2022-08-23T02:20:00;100379.94;;;16.82;100.00
55301;BME280;58302;51.446;-2.000;2022-08-23T02:22:27;100380.22;;;16.81;100.00
55301;BME280;58302;51.446;-2.000;2022-08-23T02:24:53;100379.41;;;16.80;100.00
55301;BME280;58302;51.446;-2.000;2022-08-23T02:27:19;100384.63;;;16.82;100.00
55301;BME280;58302;51.446;-2.000;2022-08-23T02:29:46;100381.34;;;16.80;100.00
55301;BME280;58302;51.446;-2.000;2022-08-23T02:32:31;100386.03;;;16.79;100.00
55301;BME280;58302;51.446;-2.000;2022-08-23T02:35:05;100378.13;;;16.78;100.00
55301;BME280;58302;51.446;-2.000;2022-08-23T02:37:34;100371.63;;;16.74;100.00
55301;BME280;58302;51.446;-2.000;2022-08-23T02:40:02;100382.09;;;16.72;100.00
55301;BME280;58302;51.446;-2.000;2022-08-23T02:42:28;100394.69;;;16.73;100.00
55301;BME280;58302;51.446;-2.000;2022-08-23T02:44:54;100388.97;;;16.69;100.00
55301;BME280;58302;51.446;-2.000;2022-08-23T02:47:21;100382.97;;;16.67;100.00
55301;BME280;58302;51.446;-2.000;2022-08-23T02:49:48;100387.66;;;16.67;100.00
55301;BME280;58302;51.446;-2.000;2022-08-23T02:52:15;100398.97;;;16.65;100.00
55301;BME280;58302;51.446;-2.000;2022-08-23T02:54:41;100395.19;;;16.61;100.00
55301;BME280;58302;51.446;-2.000;2022-08-23T02:57:19;100395.78;;;16.58;100.00
55301;BME280;58302;51.446;-2.000;2022-08-23T03:00:07;100396.09;;;16.56;100.00
55301;BME280;58302;51.446;-2.000;2022-08-23T03:02:36;100397.22;;;16.55;100.00
55301;BME280;58302;51.446;-2.000;2022-08-23T03:05:03;100402.50;;;16.52;100.00
55301;BME280;58302;51.446;-2.000;2022-08-23T03:07:30;100402.50;;;16.52;100.00
55301;BME280;58302;51.446;-2.000;2022-08-23T03:09:56;100406.97;;;16.48;100.00
55301;BME280;58302;51.446;-2.000;2022-08-23T03:12:22;100408.41;;;16.45;100.00
55301;BME280;58302;51.446;-2.000;2022-08-23T03:14:49;100399.38;;;16.45;100.00
55301;BME280;58302;51.446;-2.000;2022-08-23T03:17:19;100390.94;;;16.41;100.00
55301;BME280;58302;51.446;-2.000;2022-08-23T03:19:45;100388.81;;;16.38;100.00
55301;BME280;58302;51.446;-2.000;2022-08-23T03:22:11;100390.75;;;16.38;100.00
55301;BME280;58302;51.446;-2.000;2022-08-23T03:24:37;100393.88;;;16.31;100.00
55301;BME280;58302;51.446;-2.000;2022-08-23T03:27:03;100391.22;;;16.26;100.00
55301;BME280;58302;51.446;-2.000;2022-08-23T03:29:30;100389.63;;;16.25;100.00
55301;BME280;58302;51.446;-2.000;2022-08-23T03:31:57;100383.13;;;16.21;100.00
55301;BME280;58302;51.446;-2.000;2022-08-23T03:34:23;100390.34;;;16.17;100.00
55301;BME280;58302;51.446;-2.000;2022-08-23T03:36:49;100387.69;;;16.12;100.00
55301;BME280;58302;51.446;-2.000;2022-08-23T03:39:15;100386.44;;;16.04;100.00
55301;BME280;58302;51.446;-2.000;2022-08-23T03:41:41;100389.00;;;16.00;100.00
55301;BME280;58302;51.446;-2.000;2022-08-23T03:44:07;100391.03;;;15.95;100.00
55301;BME280;58302;51.446;-2.000;2022-08-23T03:46:33;100398.53;;;15.89;100.00
55301;BME280;58302;51.446;-2.000;2022-08-23T03:49:00;100399.44;;;15.85;100.00
55301;BME280;58302;51.446;-2.000;2022-08-23T03:51:28;100405.41;;;15.87;100.00
55301;BME280;58302;51.446;-2.000;2022-08-23T03:53:54;100406.84;;;15.84;100.00
55301;BME280;58302;51.446;-2.000;2022-08-23T03:56:33;100409.06;;;15.82;100.00
55301;BME280;58302;51.446;-2.000;2022-08-23T03:59:03;100412.63;;;15.83;100.00
55301;BME280;58302;51.446;-2.000;2022-08-23T04:01:29;100413.44;;;15.83;100.00
55301;BME280;58302;51.446;-2.000;2022-08-23T04:03:55;100413.44;;;15.83;100.00
55301;BME280;58302;51.446;-2.000;2022-08-23T04:06:26;100417.81;;;15.84;100.00
55301;BME280;58302;51.446;-2.000;2022-08-23T04:08:52;100412.00;;;15.86;100.00
55301;BME280;58302;51.446;-2.000;2022-08-23T04:11:20;100417.00;;;15.84;100.00
55301;BME280;58302;51.446;-2.000;2022-08-23T04:13:46;100424.41;;;15.83;100.00
55301;BME280;58302;51.446;-2.000;2022-08-23T04:16:13;100422.56;;;15.78;100.00
55301;BME280;58302;51.446;-2.000;2022-08-23T04:18:39;100428.84;;;15.79;100.00
55301;BME280;58302;51.446;-2.000;2022-08-23T04:21:13;100423.38;;;15.79;100.00
55301;BME280;58302;51.446;-2.000;2022-08-23T04:23:40;100420.41;;;15.75;100.00
55301;BME280;58302;51.446;-2.000;2022-08-23T04:26:06;100419.09;;;15.73;100.00
55301;BME280;58302;51.446;-2.000;2022-08-23T04:28:35;100416.94;;;15.70;100.00
55301;BME280;58302;51.446;-2.000;2022-08-23T04:31:02;100417.16;;;15.73;100.00
55301;BME280;58302;51.446;-2.000;2022-08-23T04:33:29;100417.97;;;15.74;100.00
55301;BME280;58302;51.446;-2.000;2022-08-23T04:35:59;100422.66;;;15.73;100.00
55301;BME280;58302;51.446;-2.000;2022-08-23T04:38:26;100419.59;;;15.75;100.00
55301;BME280;58302;51.446;-2.000;2022-08-23T04:40:53;100425.06;;;15.75;100.00
55301;BME280;58302;51.446;-2.000;2022-08-23T04:43:39;100425.59;;;15.77;100.00
55301;BME280;58302;51.446;-2.000;2022-08-23T04:46:05;100430.25;;;15.76;100.00
55301;BME280;58302;51.446;-2.000;2022-08-23T04:48:31;100432.50;;;15.74;100.00
55301;BME280;58302;51.446;-2.000;2022-08-23T04:50:58;100438.28;;;15.73;100.00
55301;BME280;58302;51.446;-2.000;2022-08-23T04:53:24;100426.50;;;15.72;100.00
55301;BME280;58302;51.446;-2.000;2022-08-23T04:55:50;100424.56;;;15.73;100.00
55301;BME280;58302;51.446;-2.000;2022-08-23T04:58:17;100422.16;;;15.71;100.00
55301;BME280;58302;51.446;-2.000;2022-08-23T05:00:44;100427.91;;;15.70;100.00
55301;BME280;58302;51.446;-2.000;2022-08-23T05:03:13;100426.78;;;15.71;100.00
55301;BME280;58302;51.446;-2.000;2022-08-23T05:05:38;100434.50;;;15.69;100.00
55301;BME280;58302;51.446;-2.000;2022-08-23T05:08:06;100430.13;;;15.68;100.00
55301;BME280;58302;51.446;-2.000;2022-08-23T05:10:32;100435.63;;;15.68;100.00
55301;BME280;58302;51.446;-2.000;2022-08-23T05:12:58;100439.97;;;15.69;100.00
55301;BME280;58302;51.446;-2.000;2022-08-23T05:15:24;100434.19;;;15.70;100.00
55301;BME280;58302;51.446;-2.000;2022-08-23T05:17:50;100429.53;;;15.71;100.00
55301;BME280;58302;51.446;-2.000;2022-08-23T05:20:16;100436.94;;;15.70;100.00
55301;BME280;58302;51.446;-2.000;2022-08-23T05:22:43;100424.88;;;15.71;100.00
55301;BME280;58302;51.446;-2.000;2022-08-23T05:25:09;100423.22;;;15.70;100.00
55301;BME280;58302;51.446;-2.000;2022-08-23T05:27:35;100430.13;;;15.68;100.00
55301;BME280;58302;51.446;-2.000;2022-08-23T05:30:03;100438.13;;;15.64;100.00
55301;BME280;58302;51.446;-2.000;2022-08-23T05:32:29;100454.88;;;15.63;100.00
55301;BME280;58302;51.446;-2.000;2022-08-23T05:34:55;100456.50;;;15.64;100.00
55301;BME280;58302;51.446;-2.000;2022-08-23T05:37:20;100456.50;;;15.64;100.00
55301;BME280;58302;51.446;-2.000;2022-08-23T05:39:46;100460.88;;;15.65;100.00
55301;BME280;58302;51.446;-2.000;2022-08-23T05:42:15;100457.09;;;15.61;100.00
55301;BME280;58302;51.446;-2.000;2022-08-23T05:44:42;100452.19;;;15.58;100.00
55301;BME280;58302;51.446;-2.000;2022-08-23T05:47:13;100444.34;;;15.51;100.00
55301;BME280;58302;51.446;-2.000;2022-08-23T05:49:39;100448.50;;;15.48;100.00
55301;BME280;58302;51.446;-2.000;2022-08-23T05:52:08;100458.44;;;15.44;100.00
55301;BME280;58302;51.446;-2.000;2022-08-23T05:54:35;100457.69;;;15.39;100.00
55301;BME280;58302;51.446;-2.000;2022-08-23T05:57:01;100458.78;;;15.38;100.00
55301;BME280;58302;51.446;-2.000;2022-08-23T05:59:27;100456.03;;;15.38;100.00
55301;BME280;58302;51.446;-2.000;2022-08-23T06:01:53;100464.09;;;15.48;100.00
55301;BME280;58302;51.446;-2.000;2022-08-23T06:04:18;100461.44;;;15.62;100.00
55301;BME280;58302;51.446;-2.000;2022-08-23T06:06:45;100461.75;;;15.79;100.00
55301;BME280;58302;51.446;-2.000;2022-08-23T06:09:13;100462.78;;;15.97;100.00
55301;BME280;58302;51.446;-2.000;2022-08-23T06:11:42;100473.31;;;16.22;100.00
55301;BME280;58302;51.446;-2.000;2022-08-23T06:14:08;100463.88;;;16.42;100.00
55301;BME280;58302;51.446;-2.000;2022-08-23T06:16:40;100465.72;;;16.60;100.00
55301;BME280;58302;51.446;-2.000;2022-08-23T06:19:07;100464.59;;;16.75;100.00
55301;BME280;58302;51.446;-2.000;2022-08-23T06:21:34;100460.84;;;16.85;100.00
55301;BME280;58302;51.446;-2.000;2022-08-23T06:24:01;100458.09;;;16.99;100.00
55301;BME280;58302;51.446;-2.000;2022-08-23T06:26:33;100464.06;;;17.15;99.23
55301;BME280;58302;51.446;-2.000;2022-08-23T06:29:04;100460.56;;;17.23;96.75
55301;BME280;58302;51.446;-2.000;2022-08-23T06:31:31;100464.81;;;17.29;96.40
55301;BME280;58302;51.446;-2.000;2022-08-23T06:34:16;100463.22;;;17.28;96.63
55301;BME280;58302;51.446;-2.000;2022-08-23T06:36:48;100467.69;;;17.24;96.81
55301;BME280;58302;51.446;-2.000;2022-08-23T06:39:16;100459.50;;;17.10;96.87
55301;BME280;58302;51.446;-2.000;2022-08-23T06:41:43;100469.38;;;16.97;98.28
55301;BME280;58302;51.446;-2.000;2022-08-23T06:44:09;100469.88;;;16.85;99.50
55301;BME280;58302;51.446;-2.000;2022-08-23T06:46:35;100477.53;;;16.75;99.68
55301;BME280;58302;51.446;-2.000;2022-08-23T06:49:04;100475.69;;;16.70;100.00
55301;BME280;58302;51.446;-2.000;2022-08-23T06:51:41;100471.34;;;16.83;100.00
55301;BME280;58302;51.446;-2.000;2022-08-23T06:54:10;100473.72;;;17.48;96.83
55301;BME280;58302;51.446;-2.000;2022-08-23T06:56:37;100463.47;;;18.38;91.36
55301;BME280;58302;51.446;-2.000;2022-08-23T06:59:04;100471.34;;;19.19;84.79
55301;BME280;58302;51.446;-2.000;2022-08-23T07:01:48;100470.69;;;19.83;82.54
55301;BME280;58302;51.446;-2.000;2022-08-23T07:04:51;100467.78;;;20.52;76.65
55301;BME280;58302;51.446;-2.000;2022-08-23T07:07:10;100473.69;;;21.01;73.85
55301;BME280;58302;51.446;-2.000;2022-08-23T07:09:37;100463.63;;;21.26;72.91
55301;BME280;58302;51.446;-2.000;2022-08-23T07:12:03;100478.50;;;21.43;71.42
55301;BME280;58302;51.446;-2.000;2022-08-23T07:14:30;100482.91;;;21.35;73.35
55301;BME280;58302;51.446;-2.000;2022-08-23T07:16:59;100480.63;;;21.37;72.17
55301;BME280;58302;51.446;-2.000;2022-08-23T07:19:28;100481.41;;;21.58;71.45
55301;BME280;58302;51.446;-2.000;2022-08-23T07:21:56;100488.16;;;22.03;69.45
55301;BME280;58302;51.446;-2.000;2022-08-23T07:24:24;100485.38;;;22.24;67.67
55301;BME280;58302;51.446;-2.000;2022-08-23T07:26:50;100477.09;;;22.85;66.49
55301;BME280;58302;51.446;-2.000;2022-08-23T07:29:18;100475.25;;;23.01;64.94
55301;BME280;58302;51.446;-2.000;2022-08-23T07:31:49;100481.81;;;22.35;67.78
55301;BME280;58302;51.446;-2.000;2022-08-23T07:34:15;100487.69;;;22.01;67.92
55301;BME280;58302;51.446;-2.000;2022-08-23T07:36:44;100481.09;;;21.60;69.75
55301;BME280;58302;51.446;-2.000;2022-08-23T07:39:11;100492.72;;;21.24;71.90
55301;BME280;58302;51.446;-2.000;2022-08-23T07:41:38;100495.38;;;20.91;74.29
55301;BME280;58302;51.446;-2.000;2022-08-23T07:44:06;100494.50;;;20.69;74.73
55301;BME280;58302;51.446;-2.000;2022-08-23T07:46:34;100499.16;;;20.31;76.24
55301;BME280;58302;51.446;-2.000;2022-08-23T07:49:02;100494.09;;;19.94;78.51
55301;BME280;58302;51.446;-2.000;2022-08-23T07:51:30;100496.00;;;19.94;79.82
55301;BME280;58302;51.446;-2.000;2022-08-23T07:53:56;100503.16;;;19.95;79.89
55301;BME280;58302;51.446;-2.000;2022-08-23T07:56:22;100501.34;;;20.08;79.32
55301;BME280;58302;51.446;-2.000;2022-08-23T07:58:48;100500.19;;;20.09;80.34
55301;BME280;58302;51.446;-2.000;2022-08-23T08:01:17;100494.13;;;20.33;79.54
55301;BME280;58302;51.446;-2.000;2022-08-23T08:03:45;100502.13;;;20.72;78.28
55301;BME280;58302;51.446;-2.000;2022-08-23T08:06:22;100501.03;;;21.24;75.10
55301;BME280;58302;51.446;-2.000;2022-08-23T08:08:49;100500.81;;;21.38;74.31
55301;BME280;58302;51.446;-2.000;2022-08-23T08:11:18;100500.97;;;21.53;73.76
55301;BME280;58302;51.446;-2.000;2022-08-23T08:13:47;100497.75;;;21.72;72.99
55301;BME280;58302;51.446;-2.000;2022-08-23T08:16:31;100501.09;;;21.99;71.85
55301;BME280;58302;51.446;-2.000;2022-08-23T08:18:59;100502.91;;;22.28;71.20
55301;BME280;58302;51.446;-2.000;2022-08-23T08:21:26;100493.50;;;22.53;69.13
55301;BME280;58302;51.446;-2.000;2022-08-23T08:23:53;100490.63;;;22.86;68.81
55301;BME280;58302;51.446;-2.000;2022-08-23T08:26:20;100501.47;;;22.79;68.46
55301;BME280;58302;51.446;-2.000;2022-08-23T08:28:47;100495.47;;;22.53;70.87
55301;BME280;58302;51.446;-2.000;2022-08-23T08:31:14;100496.63;;;22.64;69.47
55301;BME280;58302;51.446;-2.000;2022-08-23T08:33:40;100499.94;;;22.57;69.72
55301;BME280;58302;51.446;-2.000;2022-08-23T08:36:08;100500.34;;;22.80;68.23
55301;BME280;58302;51.446;-2.000;2022-08-23T08:38:51;100510.22;;;22.57;69.24
55301;BME280;58302;51.446;-2.000;2022-08-23T08:41:31;100515.31;;;22.43;69.97
55301;BME280;58302;51.446;-2.000;2022-08-23T08:44:11;100516.72;;;22.16;71.98
55301;BME280;58302;51.446;-2.000;2022-08-23T08:46:44;100516.81;;;21.86;73.24
55301;BME280;58302;51.446;-2.000;2022-08-23T08:49:29;100518.72;;;21.73;75.38
55301;BME280;58302;51.446;-2.000;2022-08-23T08:52:17;100521.00;;;21.92;74.43
55301;BME280;58302;51.446;-2.000;2022-08-23T08:54:48;100513.41;;;21.68;75.39
55301;BME280;58302;51.446;-2.000;2022-08-23T08:57:18;100516.84;;;21.65;75.90
55301;BME280;58302;51.446;-2.000;2022-08-23T09:02:16;100517.97;;;21.64;76.77
55301;BME280;58302;51.446;-2.000;2022-08-23T09:04:44;100515.81;;;21.70;75.93
55301;BME280;58302;51.446;-2.000;2022-08-23T09:07:22;100514.75;;;21.41;77.33
55301;BME280;58302;51.446;-2.000;2022-08-23T09:10:08;100514.91;;;21.15;78.92
55301;BME280;58302;51.446;-2.000;2022-08-23T09:18:13;100519.72;;;20.97;83.78
55301;BME280;58302;51.446;-2.000;2022-08-23T09:20:42;100516.22;;;20.79;84.79
55301;BME280;58302;51.446;-2.000;2022-08-23T09:23:12;100514.69;;;20.61;85.42
55301;BME280;58302;51.446;-2.000;2022-08-23T09:25:50;100511.97;;;20.52;86.71
55301;BME280;58302;51.446;-2.000;2022-08-23T09:28:16;100518.56;;;20.69;85.90
55301;BME280;58302;51.446;-2.000;2022-08-23T09:30:52;100524.16;;;20.90;85.45
55301;BME280;58302;51.446;-2.000;2022-08-23T09:33:25;100524.69;;;21.04;85.36
55301;BME280;58302;51.446;-2.000;2022-08-23T09:36:22;100527.84;;;21.23;83.38
55301;BME280;58302;51.446;-2.000;2022-08-23T09:39:01;100531.78;;;21.22;83.40
55301;BME280;58302;51.446;-2.000;2022-08-23T09:41:37;100534.66;;;21.05;83.82
55301;BME280;58302;51.446;-2.000;2022-08-23T09:44:07;100527.94;;;20.76;85.05
55301;BME280;58302;51.446;-2.000;2022-08-23T09:46:36;100531.19;;;20.78;85.24
55301;BME280;58302;51.446;-2.000;2022-08-23T09:49:33;100524.97;;;20.90;85.43
55301;BME280;58302;51.446;-2.000;2022-08-23T09:54:56;100531.69;;;21.10;84.27
55301;BME280;58302;51.446;-2.000;2022-08-23T09:57:27;100527.66;;;21.28;82.62
55301;BME280;58302;51.446;-2.000;2022-08-23T09:59:54;100534.66;;;21.35;82.41
55301;BME280;58302;51.446;-2.000;2022-08-23T10:07:53;100538.44;;;21.21;82.88
55301;BME280;58302;51.446;-2.000;2022-08-23T10:13:08;100528.97;;;21.52;81.66
55301;BME280;58302;51.446;-2.000;2022-08-23T10:18:54;100535.13;;;21.78;79.97
55301;BME280;58302;51.446;-2.000;2022-08-23T10:21:20;100530.94;;;22.14;77.93
55301;BME280;58302;51.446;-2.000;2022-08-23T10:24:13;100531.81;;;22.51;76.26
55301;BME280;58302;51.446;-2.000;2022-08-23T10:26:49;100531.22;;;22.46;76.02
55301;BME280;58302;51.446;-2.000;2022-08-23T10:37:30;100526.66;;;24.04;70.84
55301;BME280;58302;51.446;-2.000;2022-08-23T10:40:01;100535.09;;;24.35;68.56
55301;BME280;58302;51.446;-2.000;2022-08-23T10:42:42;100531.28;;;24.28;67.96
55301;BME280;58302;51.446;-2.000;2022-08-23T10:45:22;100531.28;;;24.12;68.85
55301;BME280;58302;51.446;-2.000;2022-08-23T10:50:27;100517.47;;;24.59;67.22
55301;BME280;58302;51.446;-2.000;2022-08-23T10:53:10;100518.78;;;24.81;65.55
55301;BME280;58302;51.446;-2.000;2022-08-23T10:55:42;100517.91;;;25.09;64.09
55301;BME280;58302;51.446;-2.000;2022-08-23T10:58:38;100529.47;;;24.79;65.77
55301;BME280;58302;51.446;-2.000;2022-08-23T11:01:07;100530.63;;;24.47;66.05
55301;BME280;58302;51.446;-2.000;2022-08-23T11:09:06;100532.00;;;24.84;64.88
55301;BME280;58302;51.446;-2.000;2022-08-23T11:17:08;100535.56;;;26.29;58.32
55301;BME280;58302;51.446;-2.000;2022-08-23T11:19:59;100527.50;;;26.43;58.04
55301;BME280;58302;51.446;-2.000;2022-08-23T11:22:28;100530.31;;;27.16;56.55
55301;BME280;58302;51.446;-2.000;2022-08-23T11:25:37;100528.88;;;28.60;51.41
55301;BME280;58302;51.446;-2.000;2022-08-23T11:30:49;100525.75;;;28.28;49.99
55301;BME280;58302;51.446;-2.000;2022-08-23T11:33:22;100517.72;;;27.86;50.83
55301;BME280;58302;51.446;-2.000;2022-08-23T11:35:53;100522.25;;;27.37;53.20
55301;BME280;58302;51.446;-2.000;2022-08-23T11:43:42;100513.97;;;26.45;54.30
55301;BME280;58302;51.446;-2.000;2022-08-23T11:54:31;100503.34;;;27.57;52.78
55301;BME280;58302;51.446;-2.000;2022-08-23T11:57:50;100506.56;;;27.89;51.39
55301;BME280;58302;51.446;-2.000;2022-08-23T12:18:32;100507.81;;;29.28;46.35
55301;BME280;58302;51.446;-2.000;2022-08-23T12:21:01;100499.91;;;29.48;45.78
55301;BME280;58302;51.446;-2.000;2022-08-23T12:23:27;100509.28;;;29.74;45.23
55301;BME280;58302;51.446;-2.000;2022-08-23T12:26:06;100512.16;;;29.95;45.18
55301;BME280;58302;51.446;-2.000;2022-08-23T12:28:41;100517.50;;;30.75;42.67
55301;BME280;58302;51.446;-2.000;2022-08-23T12:31:20;100510.69;;;30.58;42.72
55301;BME280;58302;51.446;-2.000;2022-08-23T12:39:09;100506.72;;;28.88;45.47
55301;BME280;58302;51.446;-2.000;2022-08-23T12:45:01;100505.50;;;28.38;46.00
55301;BME280;58302;51.446;-2.000;2022-08-23T12:47:28;100512.03;;;28.97;45.29
55301;BME280;58302;51.446;-2.000;2022-08-23T12:52:37;100503.72;;;29.84;42.11
55301;BME280;58302;51.446;-2.000;2022-08-23T12:55:16;100500.16;;;30.05;41.58
55301;BME280;58302;51.446;-2.000;2022-08-23T12:57:51;100502.97;;;30.09;42.07
55301;BME280;58302;51.446;-2.000;2022-08-23T13:00:31;100499.28;;;29.80;41.85
55301;BME280;58302;51.446;-2.000;2022-08-23T13:03:13;100500.13;;;29.84;42.58
55301;BME280;58302;51.446;-2.000;2022-08-23T13:05:49;100497.69;;;29.79;42.20
55301;BME280;58302;51.446;-2.000;2022-08-23T13:08:22;100506.66;;;30.24;41.24
55301;BME280;58302;51.446;-2.000;2022-08-23T13:10:50;100507.84;;;30.30;39.81
55301;BME280;58302;51.446;-2.000;2022-08-23T13:13:20;100493.44;;;30.42;39.69
55301;BME280;58302;51.446;-2.000;2022-08-23T13:23:50;100493.06;;;30.76;39.01
55301;BME280;58302;51.446;-2.000;2022-08-23T13:26:24;100492.63;;;31.16;37.75
55301;BME280;58302;51.446;-2.000;2022-08-23T13:31:59;100503.91;;;30.88;38.75
55301;BME280;58302;51.446;-2.000;2022-08-23T13:34:33;100495.47;;;30.91;38.12
55301;BME280;58302;51.446;-2.000;2022-08-23T13:37:03;100489.78;;;31.38;37.70
55301;BME280;58302;51.446;-2.000;2022-08-23T13:39:30;100491.00;;;31.08;38.40
55301;BME280;58302;51.446;-2.000;2022-08-23T13:41:57;100486.56;;;31.36;38.06
55301;BME280;58302;51.446;-2.000;2022-08-23T13:44:24;100498.28;;;30.74;38.49
55301;BME280;58302;51.446;-2.000;2022-08-23T13:46:51;100494.63;;;30.59;39.31
55301;BME280;58302;51.446;-2.000;2022-08-23T13:49:27;100485.78;;;31.28;38.24
55301;BME280;58302;51.446;-2.000;2022-08-23T13:54:27;100483.56;;;31.75;36.32
55301;BME280;58302;51.446;-2.000;2022-08-23T13:57:02;100475.75;;;31.23;37.06
55301;BME280;58302;51.446;-2.000;2022-08-23T13:59:33;100485.72;;;31.42;35.56
55301;BME280;58302;51.446;-2.000;2022-08-23T14:02:04;100482.59;;;31.08;36.08
55301;BME280;58302;51.446;-2.000;2022-08-23T14:04:30;100483.44;;;30.69;37.37
55301;BME280;58302;51.446;-2.000;2022-08-23T14:06:56;100472.19;;;31.05;36.93
55301;BME280;58302;51.446;-2.000;2022-08-23T14:09:22;100476.13;;;31.43;35.99
55301;BME280;58302;51.446;-2.000;2022-08-23T14:11:52;100475.31;;;31.36;35.96
55301;BME280;58302;51.446;-2.000;2022-08-23T14:14:19;100477.38;;;31.32;36.14
55301;BME280;58302;51.446;-2.000;2022-08-23T14:16:46;100475.75;;;31.31;36.37
55301;BME280;58302;51.446;-2.000;2022-08-23T14:19:12;100479.38;;;31.13;36.23
55301;BME280;58302;51.446;-2.000;2022-08-23T14:21:38;100476.22;;;30.51;37.90
55301;BME280;58302;51.446;-2.000;2022-08-23T14:24:04;100472.78;;;29.59;39.43
55301;BME280;58302;51.446;-2.000;2022-08-23T14:26:30;100472.28;;;29.36;40.40
55301;BME280;58302;51.446;-2.000;2022-08-23T14:28:56;100476.81;;;29.65;39.35
55301;BME280;58302;51.446;-2.000;2022-08-23T14:31:22;100477.03;;;30.33;38.69
55301;BME280;58302;51.446;-2.000;2022-08-23T14:33:48;100471.44;;;30.69;37.10
55301;BME280;58302;51.446;-2.000;2022-08-23T14:36:15;100474.22;;;30.69;36.92
55301;BME280;58302;51.446;-2.000;2022-08-23T14:38:41;100466.22;;;30.75;36.74
55301;BME280;58302;51.446;-2.000;2022-08-23T14:41:13;100468.19;;;30.56;37.29
55301;BME280;58302;51.446;-2.000;2022-08-23T14:43:41;100467.66;;;31.47;35.81